sensor_id;sensor_type;location;lat;lon;timestamp;P1;durP1;ratioP1;P2;durP2;ratioP2
15287;SDS011;7745;48.708;9.026;2022-07-23T00:00:27;5.47;;;4.32;;
15287;SDS011;7745;48.708;9.026;2022-07-23T00:02:54;4.72;;;4.32;;
15287;SDS011;7745;48.708;9.026;2022-07-23T00:05:21;6.45;;;4.47;;
15287;SDS011;7745;48.708;9.026;2022-07-23T00:07:48;5.32;;;4.85;;
15287;SDS011;7745;48.708;9.026;2022-07-23T00:10:15;4.88;;;4.25;;
15287;SDS011;7745;48.708;9.026;2022-07-23T00:12:42;4.82;;;4.25;;
15287;SDS011;7745;48.708;9.026;2022-07-23T00:15:09;5.18;;;4.35;;
15287;SDS011;7745;48.708;9.026;2022-07-23T00:17:37;4.95;;;4.43;;
15287;SDS011;7745;48.708;9.026;2022-07-23T00:20:04;5.70;;;4.30;;
15287;SDS011;7745;48.708;9.026;2022-07-23T00:22:32;5.20;;;4.20;;
15287;SDS011;7745;48.708;9.026;2022-07-23T00:24:59;5.07;;;3.83;;
15287;SDS011;7745;48.708;9.026;2022-07-23T00:27:26;4.97;;;4.45;;
15287;SDS011;7745;48.708;9.026;2022-07-23T00:29:53;5.18;;;4.05;;
15287;SDS011;7745;48.708;9.026;2022-07-23T00:32:20;5.53;;;4.40;;
15287;SDS011;7745;48.708;9.026;2022-07-23T00:34:48;5.82;;;4.53;;
15287;SDS011;7745;48.708;9.026;2022-07-23T00:37:15;6.57;;;4.70;;
15287;SDS011;7745;48.708;9.026;2022-07-23T00:39:42;5.35;;;4.63;;
15287;SDS011;7745;48.708;9.026;2022-07-23T00:42:09;4.78;;;4.38;;
15287;SDS011;7745;48.708;9.026;2022-07-23T00:44:36;5.30;;;4.80;;
15287;SDS011;7745;48.708;9.026;2022-07-23T00:47:02;5.45;;;4.30;;
15287;SDS011;7745;48.708;9.026;2022-07-23T00:49:31;6.32;;;4.47;;
15287;SDS011;7745;48.708;9.026;2022-07-23T00:52:00;5.45;;;4.72;;
15287;SDS011;7745;48.708;9.026;2022-07-23T00:54:28;5.05;;;4.45;;
15287;SDS011;7745;48.708;9.026;2022-07-23T00:56:54;5.55;;;4.38;;
15287;SDS011;7745;48.708;9.026;2022-07-23T00:59:22;4.60;;;4.30;;
15287;SDS011;7745;48.708;9.026;2022-07-23T01:01:48;4.90;;;4.40;;
15287;SDS011;7745;48.708;9.026;2022-07-23T01:04:15;4.25;;;3.83;;
15287;SDS011;7745;48.708;9.026;2022-07-23T01:06:43;4.80;;;4.32;;
15287;SDS011;7745;48.708;9.026;2022-07-23T01:09:12;4.88;;;4.40;;
15287;SDS011;7745;48.708;9.026;2022-07-23T01:11:39;5.00;;;4.60;;
15287;SDS011;7745;48.708;9.026;2022-07-23T01:14:08;5.78;;;4.50;;
15287;SDS011;7745;48.708;9.026;2022-07-23T01:16:39;4.93;;;4.53;;
15287;SDS011;7745;48.708;9.026;2022-07-23T01:19:07;4.65;;;4.25;;
15287;SDS011;7745;48.708;9.026;2022-07-23T01:21:35;4.82;;;4.28;;
15287;SDS011;7745;48.708;9.026;2022-07-23T01:24:05;4.90;;;4.22;;
15287;SDS011;7745;48.708;9.026;2022-07-23T01:26:33;4.90;;;4.28;;
15287;SDS011;7745;48.708;9.026;2022-07-23T01:29:01;4.80;;;4.30;;
15287;SDS011;7745;48.708;9.026;2022-07-23T01:31:28;4.68;;;4.15;;
15287;SDS011;7745;48.708;9.026;2022-07-23T01:33:55;5.38;;;4.28;;
15287;SDS011;7745;48.708;9.026;2022-07-23T01:36:22;5.47;;;4.50;;
15287;SDS011;7745;48.708;9.026;2022-07-23T01:38:49;5.22;;;4.70;;
15287;SDS011;7745;48.708;9.026;2022-07-23T01:41:18;6.22;;;4.80;;
15287;SDS011;7745;48.708;9.026;2022-07-23T01:43:45;5.20;;;4.70;;
15287;SDS011;7745;48.708;9.026;2022-07-23T01:46:12;5.68;;;4.53;;
15287;SDS011;7745;48.708;9.026;2022-07-23T01:48:39;5.90;;;4.40;;
15287;SDS011;7745;48.708;9.026;2022-07-23T01:51:05;5.00;;;4.50;;
15287;SDS011;7745;48.708;9.026;2022-07-23T01:53:32;6.68;;;4.88;;
15287;SDS011;7745;48.708;9.026;2022-07-23T01:56:00;5.82;;;4.95;;
15287;SDS011;7745;48.708;9.026;2022-07-23T01:58:29;5.30;;;4.80;;
15287;SDS011;7745;48.708;9.026;2022-07-23T02:00:57;5.70;;;4.60;;
15287;SDS011;7745;48.708;9.026;2022-07-23T02:03:24;5.35;;;4.68;;
15287;SDS011;7745;48.708;9.026;2022-07-23T02:05:51;4.93;;;4.53;;
15287;SDS011;7745;48.708;9.026;2022-07-23T02:08:17;5.10;;;4.60;;
15287;SDS011;7745;48.708;9.026;2022-07-23T02:10:44;5.00;;;4.60;;
15287;SDS011;7745;48.708;9.026;2022-07-23T02:13:12;5.22;;;4.82;;
15287;SDS011;7745;48.708;9.026;2022-07-23T02:15:40;5.22;;;4.70;;
15287;SDS011;7745;48.708;9.026;2022-07-23T02:18:07;5.73;;;5.13;;
15287;SDS011;7745;48.708;9.026;2022-07-23T02:20:34;4.80;;;4.40;;
15287;SDS011;7745;48.708;9.026;2022-07-23T02:23:03;6.07;;;4.30;;
15287;SDS011;7745;48.708;9.026;2022-07-23T02:25:31;4.93;;;4.47;;
15287;SDS011;7745;48.708;9.026;2022-07-23T02:27:58;4.90;;;4.50;;
15287;SDS011;7745;48.708;9.026;2022-07-23T02:30:24;5.50;;;4.68;;
15287;SDS011;7745;48.708;9.026;2022-07-23T02:32:53;5.53;;;4.70;;
15287;SDS011;7745;48.708;9.026;2022-07-23T02:35:20;4.90;;;4.50;;
15287;SDS011;7745;48.708;9.026;2022-07-23T02:37:46;5.20;;;4.70;;
15287;SDS011;7745;48.708;9.026;2022-07-23T02:40:13;7.60;;;4.40;;
15287;SDS011;7745;48.708;9.026;2022-07-23T02:42:40;6.20;;;4.63;;
15287;SDS011;7745;48.708;9.026;2022-07-23T02:45:07;5.07;;;4.30;;
15287;SDS011;7745;48.708;9.026;2022-07-23T02:47:35;5.10;;;4.60;;
15287;SDS011;7745;48.708;9.026;2022-07-23T02:50:03;5.27;;;4.77;;
15287;SDS011;7745;48.708;9.026;2022-07-23T02:52:32;6.00;;;5.10;;
15287;SDS011;7745;48.708;9.026;2022-07-23T02:54:58;4.87;;;4.33;;
15287;SDS011;7745;48.708;9.026;2022-07-23T02:57:25;4.77;;;4.37;;
15287;SDS011;7745;48.708;9.026;2022-07-23T02:59:52;5.33;;;4.83;;
15287;SDS011;7745;48.708;9.026;2022-07-23T03:02:19;5.03;;;4.53;;
15287;SDS011;7745;48.708;9.026;2022-07-23T03:04:46;6.80;;;5.03;;
15287;SDS011;7745;48.708;9.026;2022-07-23T03:07:15;5.17;;;4.67;;
15287;SDS011;7745;48.708;9.026;2022-07-23T03:09:42;6.07;;;5.47;;
15287;SDS011;7745;48.708;9.026;2022-07-23T03:12:09;5.87;;;5.13;;
15287;SDS011;7745;48.708;9.026;2022-07-23T03:14:36;5.17;;;4.67;;
15287;SDS011;7745;48.708;9.026;2022-07-23T03:17:03;5.10;;;4.67;;
15287;SDS011;7745;48.708;9.026;2022-07-23T03:19:29;6.17;;;5.30;;
15287;SDS011;7745;48.708;9.026;2022-07-23T03:21:56;5.23;;;4.73;;
15287;SDS011;7745;48.708;9.026;2022-07-23T03:24:25;5.73;;;5.13;;
15287;SDS011;7745;48.708;9.026;2022-07-23T03:27:12;5.07;;;4.60;;
15287;SDS011;7745;48.708;9.026;2022-07-23T03:29:39;6.00;;;5.27;;
15287;SDS011;7745;48.708;9.026;2022-07-23T03:32:06;6.07;;;4.83;;
15287;SDS011;7745;48.708;9.026;2022-07-23T03:34:33;5.40;;;4.83;;
15287;SDS011;7745;48.708;9.026;2022-07-23T03:37:00;7.47;;;5.47;;
15287;SDS011;7745;48.708;9.026;2022-07-23T03:39:28;6.23;;;5.50;;
15287;SDS011;7745;48.708;9.026;2022-07-23T03:41:55;5.63;;;5.10;;
15287;SDS011;7745;48.708;9.026;2022-07-23T03:44:22;5.70;;;5.20;;
15287;SDS011;7745;48.708;9.026;2022-07-23T03:46:49;5.13;;;4.63;;
15287;SDS011;7745;48.708;9.026;2022-07-23T03:49:16;5.47;;;4.80;;
15287;SDS011;7745;48.708;9.026;2022-07-23T03:51:43;5.20;;;4.80;;
15287;SDS011;7745;48.708;9.026;2022-07-23T03:54:10;5.53;;;5.00;;
15287;SDS011;7745;48.708;9.026;2022-07-23T03:56:38;5.80;;;5.20;;
15287;SDS011;7745;48.708;9.026;2022-07-23T03:59:05;5.60;;;5.10;;
15287;SDS011;7745;48.708;9.026;2022-07-23T04:01:32;5.27;;;4.87;;
15287;SDS011;7745;48.708;9.026;2022-07-23T04:03:59;6.57;;;4.83;;
15287;SDS011;7745;48.708;9.026;2022-07-23T04:06:26;5.87;;;5.37;;
15287;SDS011;7745;48.708;9.026;2022-07-23T04:08:53;6.17;;;5.20;;
15287;SDS011;7745;48.708;9.026;2022-07-23T04:11:20;5.97;;;5.37;;
15287;SDS011;7745;48.708;9.026;2022-07-23T04:13:49;6.10;;;5.47;;
15287;SDS011;7745;48.708;9.026;2022-07-23T04:16:16;6.00;;;5.13;;
15287;SDS011;7745;48.708;9.026;2022-07-23T04:18:42;5.93;;;5.33;;
15287;SDS011;7745;48.708;9.026;2022-07-23T04:21:09;6.13;;;5.60;;
15287;SDS011;7745;48.708;9.026;2022-07-23T04:23:36;6.40;;;5.40;;
15287;SDS011;7745;48.708;9.026;2022-07-23T04:26:03;6.10;;;5.60;;
15287;SDS011;7745;48.708;9.026;2022-07-23T04:28:30;6.07;;;5.47;;
15287;SDS011;7745;48.708;9.026;2022-07-23T04:30:58;6.20;;;5.60;;
15287;SDS011;7745;48.708;9.026;2022-07-23T04:33:25;6.27;;;5.67;;
15287;SDS011;7745;48.708;9.026;2022-07-23T04:35:52;6.30;;;5.47;;
15287;SDS011;7745;48.708;9.026;2022-07-23T04:38:19;5.93;;;5.03;;
15287;SDS011;7745;48.708;9.026;2022-07-23T04:40:46;6.40;;;5.37;;
15287;SDS011;7745;48.708;9.026;2022-07-23T04:43:13;6.30;;;5.70;;
15287;SDS011;7745;48.708;9.026;2022-07-23T04:45:40;6.03;;;5.53;;
15287;SDS011;7745;48.708;9.026;2022-07-23T04:48:08;5.87;;;5.27;;
15287;SDS011;7745;48.708;9.026;2022-07-23T04:50:35;6.30;;;5.63;;
15287;SDS011;7745;48.708;9.026;2022-07-23T04:53:02;5.70;;;5.07;;
15287;SDS011;7745;48.708;9.026;2022-07-23T04:55:29;5.77;;;5.23;;
15287;SDS011;7745;48.708;9.026;2022-07-23T04:57:56;6.00;;;5.30;;
15287;SDS011;7745;48.708;9.026;2022-07-23T05:00:23;6.53;;;5.50;;
15287;SDS011;7745;48.708;9.026;2022-07-23T05:02:49;6.93;;;5.30;;
15287;SDS011;7745;48.708;9.026;2022-07-23T05:05:18;5.57;;;5.13;;
15287;SDS011;7745;48.708;9.026;2022-07-23T05:07:44;5.50;;;4.93;;
15287;SDS011;7745;48.708;9.026;2022-07-23T05:10:11;6.30;;;5.30;;
15287;SDS011;7745;48.708;9.026;2022-07-23T05:12:38;6.43;;;5.53;;
15287;SDS011;7745;48.708;9.026;2022-07-23T05:15:05;6.20;;;5.60;;
15287;SDS011;7745;48.708;9.026;2022-07-23T05:17:32;6.63;;;5.47;;
15287;SDS011;7745;48.708;9.026;2022-07-23T05:19:59;8.37;;;5.53;;
15287;SDS011;7745;48.708;9.026;2022-07-23T05:22:28;7.37;;;5.73;;
15287;SDS011;7745;48.708;9.026;2022-07-23T05:24:55;5.80;;;5.30;;
15287;SDS011;7745;48.708;9.026;2022-07-23T05:27:21;6.20;;;5.43;;
15287;SDS011;7745;48.708;9.026;2022-07-23T05:29:48;5.60;;;5.00;;
15287;SDS011;7745;48.708;9.026;2022-07-23T05:32:18;5.63;;;5.20;;
15287;SDS011;7745;48.708;9.026;2022-07-23T05:34:45;7.07;;;5.10;;
15287;SDS011;7745;48.708;9.026;2022-07-23T05:37:12;5.70;;;5.10;;
15287;SDS011;7745;48.708;9.026;2022-07-23T05:39:40;5.67;;;5.17;;
15287;SDS011;7745;48.708;9.026;2022-07-23T05:42:07;5.67;;;5.07;;
15287;SDS011;7745;48.708;9.026;2022-07-23T05:44:34;8.23;;;5.57;;
15287;SDS011;7745;48.708;9.026;2022-07-23T05:47:03;5.90;;;5.30;;
15287;SDS011;7745;48.708;9.026;2022-07-23T05:49:30;6.50;;;5.30;;
15287;SDS011;7745;48.708;9.026;2022-07-23T05:51:57;6.15;;;5.53;;
15287;SDS011;7745;48.708;9.026;2022-07-23T05:54:24;5.82;;;5.32;;
15287;SDS011;7745;48.708;9.026;2022-07-23T05:56:52;6.60;;;5.38;;
15287;SDS011;7745;48.708;9.026;2022-07-23T05:59:19;6.05;;;5.45;;
15287;SDS011;7745;48.708;9.026;2022-07-23T06:01:46;5.75;;;5.25;;
15287;SDS011;7745;48.708;9.026;2022-07-23T06:04:13;6.03;;;5.53;;
15287;SDS011;7745;48.708;9.026;2022-07-23T06:06:39;6.20;;;5.70;;
15287;SDS011;7745;48.708;9.026;2022-07-23T06:09:06;8.63;;;5.97;;
15287;SDS011;7745;48.708;9.026;2022-07-23T06:11:35;6.68;;;5.82;;
15287;SDS011;7745;48.708;9.026;2022-07-23T06:14:03;6.20;;;5.53;;
15287;SDS011;7745;48.708;9.026;2022-07-23T06:16:30;7.53;;;6.10;;
15287;SDS011;7745;48.708;9.026;2022-07-23T06:18:57;6.05;;;5.45;;
15287;SDS011;7745;48.708;9.026;2022-07-23T06:21:24;6.93;;;5.72;;
15287;SDS011;7745;48.708;9.026;2022-07-23T06:23:51;7.68;;;6.07;;
15287;SDS011;7745;48.708;9.026;2022-07-23T06:26:17;6.07;;;5.57;;
15287;SDS011;7745;48.708;9.026;2022-07-23T06:28:44;8.02;;;6.07;;
15287;SDS011;7745;48.708;9.026;2022-07-23T06:31:12;7.00;;;6.30;;
15287;SDS011;7745;48.708;9.026;2022-07-23T06:33:39;6.68;;;6.07;;
15287;SDS011;7745;48.708;9.026;2022-07-23T06:36:06;5.82;;;5.40;;
15287;SDS011;7745;48.708;9.026;2022-07-23T06:38:33;7.22;;;5.40;;
15287;SDS011;7745;48.708;9.026;2022-07-23T06:41:00;7.03;;;5.90;;
15287;SDS011;7745;48.708;9.026;2022-07-23T06:43:27;5.90;;;5.40;;
15287;SDS011;7745;48.708;9.026;2022-07-23T06:45:56;5.85;;;5.40;;
15287;SDS011;7745;48.708;9.026;2022-07-23T06:48:24;6.13;;;5.55;;
15287;SDS011;7745;48.708;9.026;2022-07-23T06:50:51;5.93;;;5.50;;
15287;SDS011;7745;48.708;9.026;2022-07-23T06:53:18;6.70;;;5.95;;
15287;SDS011;7745;48.708;9.026;2022-07-23T06:55:45;6.57;;;5.95;;
15287;SDS011;7745;48.708;9.026;2022-07-23T06:58:12;12.77;;;5.60;;
15287;SDS011;7745;48.708;9.026;2022-07-23T07:00:39;6.95;;;5.32;;
15287;SDS011;7745;48.708;9.026;2022-07-23T07:03:05;6.78;;;5.82;;
15287;SDS011;7745;48.708;9.026;2022-07-23T07:05:34;5.68;;;5.18;;
15287;SDS011;7745;48.708;9.026;2022-07-23T07:08:00;6.13;;;5.63;;
15287;SDS011;7745;48.708;9.026;2022-07-23T07:10:27;6.13;;;5.55;;
15287;SDS011;7745;48.708;9.026;2022-07-23T07:12:54;6.13;;;5.63;;
15287;SDS011;7745;48.708;9.026;2022-07-23T07:15:21;6.20;;;5.47;;
15287;SDS011;7745;48.708;9.026;2022-07-23T07:17:48;6.32;;;5.70;;
15287;SDS011;7745;48.708;9.026;2022-07-23T07:20:15;6.15;;;5.55;;
15287;SDS011;7745;48.708;9.026;2022-07-23T07:22:43;6.70;;;5.97;;
15287;SDS011;7745;48.708;9.026;2022-07-23T07:25:10;6.15;;;5.55;;
15287;SDS011;7745;48.708;9.026;2022-07-23T07:27:37;7.82;;;5.57;;
15287;SDS011;7745;48.708;9.026;2022-07-23T07:30:04;6.97;;;5.88;;
15287;SDS011;7745;48.708;9.026;2022-07-23T07:32:32;5.80;;;5.30;;
15287;SDS011;7745;48.708;9.026;2022-07-23T07:35:01;6.05;;;5.45;;
15287;SDS011;7745;48.708;9.026;2022-07-23T07:37:28;6.68;;;5.53;;
15287;SDS011;7745;48.708;9.026;2022-07-23T07:39:56;5.60;;;5.10;;
15287;SDS011;7745;48.708;9.026;2022-07-23T07:42:23;6.00;;;5.05;;
15287;SDS011;7745;48.708;9.026;2022-07-23T07:44:50;5.88;;;5.38;;
15287;SDS011;7745;48.708;9.026;2022-07-23T07:47:17;7.15;;;5.70;;
15287;SDS011;7745;48.708;9.026;2022-07-23T07:49:44;6.38;;;5.50;;
15287;SDS011;7745;48.708;9.026;2022-07-23T07:52:13;6.13;;;5.60;;
15287;SDS011;7745;48.708;9.026;2022-07-23T07:54:40;6.60;;;5.68;;
15287;SDS011;7745;48.708;9.026;2022-07-23T07:57:09;6.22;;;5.72;;
15287;SDS011;7745;48.708;9.026;2022-07-23T07:59:36;5.65;;;5.15;;
15287;SDS011;7745;48.708;9.026;2022-07-23T08:02:03;4.97;;;4.57;;
15287;SDS011;7745;48.708;9.026;2022-07-23T08:04:30;5.32;;;4.88;;
15287;SDS011;7745;48.708;9.026;2022-07-23T08:06:56;5.97;;;5.38;;
15287;SDS011;7745;48.708;9.026;2022-07-23T08:09:23;6.07;;;5.05;;
15287;SDS011;7745;48.708;9.026;2022-07-23T08:11:50;5.82;;;5.32;;
15287;SDS011;7745;48.708;9.026;2022-07-23T08:14:21;5.88;;;5.38;;
15287;SDS011;7745;48.708;9.026;2022-07-23T08:16:47;6.07;;;5.18;;
15287;SDS011;7745;48.708;9.026;2022-07-23T08:19:14;5.70;;;5.20;;
15287;SDS011;7745;48.708;9.026;2022-07-23T08:21:41;6.32;;;5.63;;
15287;SDS011;7745;48.708;9.026;2022-07-23T08:24:08;5.97;;;5.47;;
15287;SDS011;7745;48.708;9.026;2022-07-23T08:26:35;5.60;;;5.10;;
15287;SDS011;7745;48.708;9.026;2022-07-23T08:29:01;6.15;;;5.20;;
15287;SDS011;7745;48.708;9.026;2022-07-23T08:31:30;6.90;;;5.38;;
15287;SDS011;7745;48.708;9.026;2022-07-23T08:33:58;5.22;;;4.72;;
15287;SDS011;7745;48.708;9.026;2022-07-23T08:36:25;5.55;;;5.05;;
15287;SDS011;7745;48.708;9.026;2022-07-23T08:38:52;5.28;;;4.78;;
15287;SDS011;7745;48.708;9.026;2022-07-23T08:41:19;6.15;;;5.53;;
15287;SDS011;7745;48.708;9.026;2022-07-23T08:43:46;5.93;;;5.43;;
15287;SDS011;7745;48.708;9.026;2022-07-23T08:46:13;6.20;;;5.60;;
15287;SDS011;7745;48.708;9.026;2022-07-23T08:48:41;5.55;;;5.00;;
15287;SDS011;7745;48.708;9.026;2022-07-23T08:51:09;5.57;;;5.07;;
15287;SDS011;7745;48.708;9.026;2022-07-23T08:53:36;5.82;;;5.32;;
15287;SDS011;7745;48.708;9.026;2022-07-23T08:56:04;5.38;;;4.88;;
15287;SDS011;7745;48.708;9.026;2022-07-23T08:58:31;6.75;;;5.10;;
15287;SDS011;7745;48.708;9.026;2022-07-23T09:00:58;8.18;;;4.85;;
15287;SDS011;7745;48.708;9.026;2022-07-23T09:03:27;5.05;;;4.65;;
15287;SDS011;7745;48.708;9.026;2022-07-23T09:05:57;5.20;;;4.80;;
15287;SDS011;7745;48.708;9.026;2022-07-23T09:08:27;6.55;;;4.80;;
15287;SDS011;7745;48.708;9.026;2022-07-23T09:11:01;5.07;;;4.68;;
15287;SDS011;7745;48.708;9.026;2022-07-23T09:13:31;4.78;;;4.38;;
15287;SDS011;7745;48.708;9.026;2022-07-23T09:16:03;4.85;;;4.40;;
15287;SDS011;7745;48.708;9.026;2022-07-23T09:18:34;5.00;;;4.50;;
15287;SDS011;7745;48.708;9.026;2022-07-23T09:21:09;7.13;;;5.25;;
15287;SDS011;7745;48.708;9.026;2022-07-23T09:23:41;6.00;;;4.80;;
15287;SDS011;7745;48.708;9.026;2022-07-23T09:26:19;6.20;;;4.45;;
15287;SDS011;7745;48.708;9.026;2022-07-23T09:28:52;5.45;;;4.95;;
15287;SDS011;7745;48.708;9.026;2022-07-23T09:31:21;4.78;;;4.38;;
15287;SDS011;7745;48.708;9.026;2022-07-23T09:33:48;11.80;;;5.32;;
15287;SDS011;7745;48.708;9.026;2022-07-23T09:36:17;5.50;;;5.00;;
15287;SDS011;7745;48.708;9.026;2022-07-23T09:38:53;5.63;;;5.18;;
15287;SDS011;7745;48.708;9.026;2022-07-23T09:41:20;5.28;;;4.78;;
15287;SDS011;7745;48.708;9.026;2022-07-23T09:43:54;6.28;;;5.10;;
15287;SDS011;7745;48.708;9.026;2022-07-23T09:46:23;5.93;;;5.32;;
15287;SDS011;7745;48.708;9.026;2022-07-23T09:48:51;5.90;;;5.15;;
15287;SDS011;7745;48.708;9.026;2022-07-23T09:51:20;6.65;;;5.95;;
15287;SDS011;7745;48.708;9.026;2022-07-23T09:53:51;5.88;;;5.25;;
15287;SDS011;7745;48.708;9.026;2022-07-23T09:56:18;6.30;;;5.70;;
15287;SDS011;7745;48.708;9.026;2022-07-23T09:58:48;6.28;;;5.68;;
15287;SDS011;7745;48.708;9.026;2022-07-23T10:01:17;5.93;;;5.35;;
15287;SDS011;7745;48.708;9.026;2022-07-23T10:03:46;6.13;;;5.57;;
15287;SDS011;7745;48.708;9.026;2022-07-23T10:06:13;5.50;;;5.00;;
15287;SDS011;7745;48.708;9.026;2022-07-23T10:08:42;5.70;;;5.20;;
15287;SDS011;7745;48.708;9.026;2022-07-23T10:11:12;5.72;;;5.10;;
15287;SDS011;7745;48.708;9.026;2022-07-23T10:13:40;9.13;;;5.57;;
15287;SDS011;7745;48.708;9.026;2022-07-23T10:16:20;5.32;;;4.90;;
15287;SDS011;7745;48.708;9.026;2022-07-23T10:18:47;7.13;;;4.93;;
15287;SDS011;7745;48.708;9.026;2022-07-23T10:21:16;5.10;;;4.70;;
15287;SDS011;7745;48.708;9.026;2022-07-23T10:23:57;5.50;;;5.00;;
15287;SDS011;7745;48.708;9.026;2022-07-23T10:26:36;5.40;;;4.90;;
15287;SDS011;7745;48.708;9.026;2022-07-23T10:29:18;5.60;;;5.10;;
15287;SDS011;7745;48.708;9.026;2022-07-23T10:31:56;5.28;;;4.82;;
15287;SDS011;7745;48.708;9.026;2022-07-23T10:34:30;7.80;;;5.20;;
15287;SDS011;7745;48.708;9.026;2022-07-23T10:37:07;5.07;;;4.63;;
15287;SDS011;7745;48.708;9.026;2022-07-23T10:39:43;5.25;;;4.75;;
15287;SDS011;7745;48.708;9.026;2022-07-23T10:42:10;5.70;;;5.20;;
15287;SDS011;7745;48.708;9.026;2022-07-23T10:44:38;5.00;;;4.60;;
15287;SDS011;7745;48.708;9.026;2022-07-23T10:47:07;6.43;;;5.03;;
15287;SDS011;7745;48.708;9.026;2022-07-23T10:49:41;8.90;;;5.22;;
15287;SDS011;7745;48.708;9.026;2022-07-23T10:52:15;4.97;;;4.57;;
15287;SDS011;7745;48.708;9.026;2022-07-23T10:54:48;5.03;;;4.63;;
15287;SDS011;7745;48.708;9.026;2022-07-23T10:57:17;5.13;;;4.72;;
15287;SDS011;7745;48.708;9.026;2022-07-23T11:02:45;4.85;;;4.32;;
15287;SDS011;7745;48.708;9.026;2022-07-23T11:05:13;5.75;;;5.25;;
15287;SDS011;7745;48.708;9.026;2022-07-23T11:10:38;6.05;;;4.72;;
15287;SDS011;7745;48.708;9.026;2022-07-23T11:16:05;5.40;;;4.97;;
15287;SDS011;7745;48.708;9.026;2022-07-23T11:21:42;5.75;;;5.25;;
15287;SDS011;7745;48.708;9.026;2022-07-23T11:24:10;5.68;;;5.18;;
15287;SDS011;7745;48.708;9.026;2022-07-23T11:26:44;5.47;;;4.60;;
15287;SDS011;7745;48.708;9.026;2022-07-23T11:32:18;6.07;;;5.45;;
15287;SDS011;7745;48.708;9.026;2022-07-23T11:34:50;5.55;;;5.05;;
15287;SDS011;7745;48.708;9.026;2022-07-23T11:37:34;5.90;;;5.00;;
15287;SDS011;7745;48.708;9.026;2022-07-23T11:40:05;5.43;;;4.93;;
15287;SDS011;7745;48.708;9.026;2022-07-23T11:42:36;5.88;;;5.28;;
15287;SDS011;7745;48.708;9.026;2022-07-23T11:45:06;5.22;;;4.72;;
15287;SDS011;7745;48.708;9.026;2022-07-23T11:47:34;5.55;;;5.05;;
15287;SDS011;7745;48.708;9.026;2022-07-23T11:50:03;6.10;;;5.07;;
15287;SDS011;7745;48.708;9.026;2022-07-23T11:52:32;6.32;;;5.45;;
15287;SDS011;7745;48.708;9.026;2022-07-23T11:55:00;6.65;;;5.22;;
15287;SDS011;7745;48.708;9.026;2022-07-23T11:57:30;5.45;;;4.93;;
15287;SDS011;7745;48.708;9.026;2022-07-23T12:00:00;5.22;;;4.82;;
15287;SDS011;7745;48.708;9.026;2022-07-23T12:02:30;5.18;;;4.68;;
15287;SDS011;7745;48.708;9.026;2022-07-23T12:04:57;6.45;;;5.35;;
15287;SDS011;7745;48.708;9.026;2022-07-23T12:07:28;10.00;;;5.68;;
15287;SDS011;7745;48.708;9.026;2022-07-23T12:09:58;6.10;;;5.50;;
15287;SDS011;7745;48.708;9.026;2022-07-23T12:12:26;5.88;;;5.38;;
15287;SDS011;7745;48.708;9.026;2022-07-23T12:14:54;8.80;;;5.40;;
15287;SDS011;7745;48.708;9.026;2022-07-23T12:17:28;5.35;;;4.85;;
15287;SDS011;7745;48.708;9.026;2022-07-23T12:19:57;5.65;;;5.20;;
15287;SDS011;7745;48.708;9.026;2022-07-23T12:22:25;5.35;;;4.80;;
15287;SDS011;7745;48.708;9.026;2022-07-23T12:24:59;5.68;;;5.18;;
15287;SDS011;7745;48.708;9.026;2022-07-23T12:27:27;5.95;;;5.43;;
15287;SDS011;7745;48.708;9.026;2022-07-23T12:29:54;6.20;;;5.60;;
15287;SDS011;7745;48.708;9.026;2022-07-23T12:32:22;6.47;;;5.70;;
15287;SDS011;7745;48.708;9.026;2022-07-23T12:35:03;5.82;;;5.32;;
15287;SDS011;7745;48.708;9.026;2022-07-23T12:37:31;5.50;;;4.97;;
15287;SDS011;7745;48.708;9.026;2022-07-23T12:42:55;6.07;;;5.47;;
15287;SDS011;7745;48.708;9.026;2022-07-23T12:45:24;6.00;;;5.40;;
15287;SDS011;7745;48.708;9.026;2022-07-23T12:50:44;6.68;;;5.90;;
15287;SDS011;7745;48.708;9.026;2022-07-23T12:53:15;6.47;;;5.25;;
15287;SDS011;7745;48.708;9.026;2022-07-23T12:55:44;6.07;;;5.55;;
15287;SDS011;7745;48.708;9.026;2022-07-23T12:58:13;6.55;;;5.95;;
15287;SDS011;7745;48.708;9.026;2022-07-23T13:00:51;5.88;;;5.38;;
15287;SDS011;7745;48.708;9.026;2022-07-23T13:03:24;7.43;;;5.90;;
15287;SDS011;7745;48.708;9.026;2022-07-23T13:05:58;6.13;;;5.57;;
15287;SDS011;7745;48.708;9.026;2022-07-23T13:08:27;6.63;;;5.95;;
15287;SDS011;7745;48.708;9.026;2022-07-23T13:10:55;6.35;;;5.65;;
15287;SDS011;7745;48.708;9.026;2022-07-23T13:13:22;6.13;;;5.63;;
15287;SDS011;7745;48.708;9.026;2022-07-23T13:15:50;5.88;;;5.30;;
15287;SDS011;7745;48.708;9.026;2022-07-23T13:18:18;6.20;;;5.50;;
15287;SDS011;7745;48.708;9.026;2022-07-23T13:20:46;6.22;;;5.68;;
15287;SDS011;7745;48.708;9.026;2022-07-23T13:23:15;6.03;;;5.53;;
15287;SDS011;7745;48.708;9.026;2022-07-23T13:25:43;6.13;;;5.18;;
15287;SDS011;7745;48.708;9.026;2022-07-23T13:28:10;5.55;;;5.05;;
15287;SDS011;7745;48.708;9.026;2022-07-23T13:30:36;6.15;;;5.55;;
15287;SDS011;7745;48.708;9.026;2022-07-23T13:33:03;6.03;;;5.43;;
15287;SDS011;7745;48.708;9.026;2022-07-23T13:35:31;6.07;;;5.57;;
15287;SDS011;7745;48.708;9.026;2022-07-23T13:37:58;5.80;;;5.30;;
15287;SDS011;7745;48.708;9.026;2022-07-23T13:40:26;6.90;;;6.20;;
15287;SDS011;7745;48.708;9.026;2022-07-23T13:42:53;6.30;;;5.68;;
15287;SDS011;7745;48.708;9.026;2022-07-23T13:45:20;6.78;;;6.07;;
15287;SDS011;7745;48.708;9.026;2022-07-23T13:47:47;5.97;;;5.47;;
15287;SDS011;7745;48.708;9.026;2022-07-23T13:50:14;7.53;;;6.03;;
15287;SDS011;7745;48.708;9.026;2022-07-23T13:52:42;7.47;;;5.70;;
15287;SDS011;7745;48.708;9.026;2022-07-23T13:55:09;6.30;;;5.70;;
15287;SDS011;7745;48.708;9.026;2022-07-23T13:57:37;5.93;;;5.43;;
15287;SDS011;7745;48.708;9.026;2022-07-23T14:00:05;6.28;;;5.32;;
15287;SDS011;7745;48.708;9.026;2022-07-23T14:02:34;6.18;;;5.47;;
15287;SDS011;7745;48.708;9.026;2022-07-23T14:05:02;6.45;;;5.78;;
15287;SDS011;7745;48.708;9.026;2022-07-23T14:07:30;5.80;;;5.20;;
15287;SDS011;7745;48.708;9.026;2022-07-23T14:09:57;6.40;;;5.43;;
15287;SDS011;7745;48.708;9.026;2022-07-23T14:12:24;6.50;;;5.90;;
15287;SDS011;7745;48.708;9.026;2022-07-23T14:14:52;6.55;;;5.50;;
15287;SDS011;7745;48.708;9.026;2022-07-23T14:17:19;5.97;;;5.47;;
15287;SDS011;7745;48.708;9.026;2022-07-23T14:19:46;7.20;;;5.40;;
15287;SDS011;7745;48.708;9.026;2022-07-23T14:22:13;5.75;;;5.15;;
15287;SDS011;7745;48.708;9.026;2022-07-23T14:24:40;6.47;;;5.55;;
15287;SDS011;7745;48.708;9.026;2022-07-23T14:27:07;7.10;;;5.60;;
15287;SDS011;7745;48.708;9.026;2022-07-23T14:29:34;9.10;;;6.30;;
15287;SDS011;7745;48.708;9.026;2022-07-23T14:32:03;8.88;;;5.65;;
15287;SDS011;7745;48.708;9.026;2022-07-23T14:34:30;6.40;;;5.90;;
15287;SDS011;7745;48.708;9.026;2022-07-23T14:36:57;7.32;;;6.10;;
15287;SDS011;7745;48.708;9.026;2022-07-23T14:39:24;8.23;;;6.05;;
15287;SDS011;7745;48.708;9.026;2022-07-23T14:41:51;6.05;;;5.55;;
15287;SDS011;7745;48.708;9.026;2022-07-23T14:44:18;5.82;;;5.40;;
15287;SDS011;7745;48.708;9.026;2022-07-23T14:46:45;6.60;;;5.40;;
15287;SDS011;7745;48.708;9.026;2022-07-23T14:49:13;6.70;;;5.60;;
15287;SDS011;7745;48.708;9.026;2022-07-23T14:51:40;6.97;;;6.07;;
15287;SDS011;7745;48.708;9.026;2022-07-23T14:54:08;6.75;;;5.88;;
15287;SDS011;7745;48.708;9.026;2022-07-23T14:56:35;6.72;;;5.97;;
15287;SDS011;7745;48.708;9.026;2022-07-23T14:59:02;6.95;;;5.82;;
15287;SDS011;7745;48.708;9.026;2022-07-23T15:01:29;5.93;;;5.43;;
15287;SDS011;7745;48.708;9.026;2022-07-23T15:03:56;6.70;;;5.97;;
15287;SDS011;7745;48.708;9.026;2022-07-23T15:06:24;6.10;;;5.50;;
15287;SDS011;7745;48.708;9.026;2022-07-23T15:08:51;6.82;;;5.88;;
15287;SDS011;7745;48.708;9.026;2022-07-23T15:11:18;10.82;;;5.72;;
15287;SDS011;7745;48.708;9.026;2022-07-23T15:13:45;23.13;;;6.63;;
15287;SDS011;7745;48.708;9.026;2022-07-23T15:16:12;7.57;;;5.82;;
15287;SDS011;7745;48.708;9.026;2022-07-23T15:18:39;6.20;;;5.60;;
15287;SDS011;7745;48.708;9.026;2022-07-23T15:21:06;6.18;;;5.57;;
15287;SDS011;7745;48.708;9.026;2022-07-23T15:23:35;7.18;;;6.07;;
15287;SDS011;7745;48.708;9.026;2022-07-23T15:26:04;5.90;;;5.30;;